createdAt,value
2017-06-08T00:00:24.970Z,16.20
2017-06-08T00:02:52.736Z,16.30
2017-06-08T00:05:20.425Z,16.30
2017-06-08T00:07:48.285Z,16.30
2017-06-08T00:10:16.147Z,16.30
2017-06-08T00:12:44.117Z,16.30
2017-06-08T00:15:11.754Z,16.30
2017-06-08T00:17:39.443Z,16.30
2017-06-08T00:20:07.208Z,16.30
2017-06-08T00:22:34.950Z,16.30
2017-06-08T00:25:04.762Z,16.30
2017-06-08T00:27:32.538Z,16.30
2017-06-08T00:30:00.315Z,16.30
2017-06-08T00:32:28.057Z,16.20
2017-06-08T00:34:55.748Z,16.30
2017-06-08T00:37:24.526Z,16.30
2017-06-08T00:39:52.271Z,16.20
2017-06-08T00:42:21.132Z,16.30
2017-06-08T00:44:48.924Z,16.30
2017-06-08T00:47:16.688Z,16.20
2017-06-08T00:49:44.764Z,16.20
2017-06-08T00:52:12.419Z,16.20
2017-06-08T00:54:40.042Z,16.20
2017-06-08T00:57:07.848Z,16.20
2017-06-08T00:59:35.613Z,16.20
2017-06-08T01:02:03.697Z,16.30
2017-06-08T01:04:31.446Z,16.20
2017-06-08T01:06:59.208Z,16.20
2017-06-08T01:09:27.004Z,16.20
2017-06-08T01:11:54.654Z,16.20
2017-06-08T01:14:22.810Z,16.20
2017-06-08T01:16:50.444Z,16.20
2017-06-08T01:19:18.241Z,16.20
2017-06-08T01:21:46.001Z,16.20
2017-06-08T01:24:13.684Z,16.20
2017-06-08T01:26:41.624Z,16.20
2017-06-08T01:29:09.319Z,16.20
2017-06-08T01:31:36.980Z,16.20
2017-06-08T01:34:04.636Z,16.20
2017-06-08T01:36:32.300Z,16.20
2017-06-08T01:39:00.352Z,16.20
2017-06-08T01:41:28.025Z,16.20
2017-06-08T01:43:55.776Z,16.20
2017-06-08T01:46:23.540Z,16.20
2017-06-08T01:48:51.202Z,16.20
2017-06-08T01:51:19.273Z,16.20
2017-06-08T01:53:47.037Z,16.20
2017-06-08T01:56:14.800Z,16.10
2017-06-08T01:58:42.488Z,16.10
2017-06-08T02:01:10.430Z,16.10
2017-06-08T02:03:38.390Z,16.10
2017-06-08T02:06:06.066Z,16.10
2017-06-08T02:08:33.698Z,16.10
2017-06-08T02:11:01.407Z,16.10
2017-06-08T02:13:29.066Z,16.10
2017-06-08T02:15:57.106Z,16.20
2017-06-08T02:18:24.799Z,16.10
2017-06-08T02:20:52.462Z,16.10
2017-06-08T02:23:20.132Z,16.10
2017-06-08T02:25:47.867Z,16.10
2017-06-08T02:28:15.941Z,16.10
2017-06-08T02:30:43.618Z,16.10
2017-06-08T02:33:11.367Z,16.10
2017-06-08T02:35:39.131Z,16.10
2017-06-08T02:38:06.815Z,16.10
2017-06-08T02:40:34.864Z,16.00
2017-06-08T02:43:02.550Z,16.00
2017-06-08T02:45:30.392Z,16.00
2017-06-08T02:47:58.070Z,16.00
2017-06-08T02:50:25.733Z,16.00
2017-06-08T02:52:53.708Z,16.00
2017-06-08T02:55:21.448Z,15.90
2017-06-08T02:57:49.213Z,15.90
2017-06-08T03:00:16.889Z,15.90
2017-06-08T03:02:44.585Z,15.90
2017-06-08T03:05:13.310Z,15.90
2017-06-08T03:07:40.962Z,15.80
2017-06-08T03:10:08.769Z,15.90
2017-06-08T03:12:37.332Z,15.90
2017-06-08T03:15:04.976Z,15.80
2017-06-08T03:17:33.171Z,15.90
2017-06-08T03:20:00.805Z,15.90
2017-06-08T03:22:28.592Z,15.90
2017-06-08T03:24:56.360Z,15.90
2017-06-08T03:27:24.038Z,15.90
2017-06-08T03:29:52.196Z,15.90
2017-06-08T03:32:19.830Z,15.90
2017-06-08T03:34:47.621Z,15.90
2017-06-08T03:37:15.308Z,15.90
2017-06-08T03:39:43.049Z,15.90
2017-06-08T03:42:11.116Z,15.90
2017-06-08T03:44:38.761Z,15.90
2017-06-08T03:47:06.542Z,15.90
2017-06-08T03:49:34.227Z,15.90
2017-06-08T03:52:01.968Z,15.90
2017-06-08T03:54:30.043Z,15.90
2017-06-08T03:56:57.673Z,15.90
2017-06-08T03:59:25.363Z,15.90
2017-06-08T04:01:53.031Z,15.90
2017-06-08T04:04:20.712Z,15.90
2017-06-08T04:06:48.679Z,15.90
2017-06-08T04:09:16.423Z,15.90
2017-06-08T04:11:44.187Z,15.90
2017-06-08T04:14:11.879Z,15.90
2017-06-08T04:16:39.636Z,15.90
2017-06-08T04:19:07.680Z,15.90
2017-06-08T04:21:35.448Z,15.90
2017-06-08T04:24:03.211Z,15.90
2017-06-08T04:26:30.890Z,15.90
2017-06-08T04:28:58.550Z,15.90
2017-06-08T04:31:26.607Z,15.90
2017-06-08T04:33:54.295Z,15.90
2017-06-08T04:36:21.947Z,15.90
2017-06-08T04:38:49.797Z,15.90
2017-06-08T04:41:17.476Z,15.90
2017-06-08T04:43:45.453Z,16.00
2017-06-08T04:46:13.084Z,16.00
2017-06-08T04:48:40.726Z,16.00
2017-06-08T04:51:08.513Z,16.00
2017-06-08T04:53:36.280Z,16.00
2017-06-08T04:56:04.240Z,16.10
2017-06-08T04:58:31.926Z,16.00
2017-06-08T05:00:59.588Z,16.10
2017-06-08T05:03:27.439Z,16.20
2017-06-08T05:05:55.203Z,16.20
2017-06-08T05:08:23.273Z,16.20
2017-06-08T05:10:51.036Z,16.30
2017-06-08T05:13:18.663Z,16.30
2017-06-08T05:15:46.388Z,16.30
2017-06-08T05:18:14.125Z,16.40
2017-06-08T05:20:42.078Z,16.40
2017-06-08T05:23:09.887Z,16.50
2017-06-08T05:25:37.752Z,16.50
2017-06-08T05:28:05.592Z,16.50
2017-06-08T05:30:33.222Z,16.60
2017-06-08T05:33:01.331Z,16.60
2017-06-08T05:35:29.088Z,16.60
2017-06-08T05:37:56.752Z,16.70
2017-06-08T05:40:24.435Z,16.70
2017-06-08T05:42:52.283Z,16.70
2017-06-08T05:45:20.453Z,16.80
2017-06-08T05:47:48.319Z,16.80
2017-06-08T05:50:16.083Z,16.80
2017-06-08T05:52:43.872Z,16.80
2017-06-08T05:55:11.526Z,16.80
2017-06-08T05:57:39.577Z,16.80
2017-06-08T06:00:07.345Z,16.90
2017-06-08T06:02:35.132Z,16.90
2017-06-08T06:05:02.898Z,16.90
2017-06-08T06:07:30.560Z,17.00
2017-06-08T06:09:58.712Z,17.00
2017-06-08T06:12:26.393Z,17.00
2017-06-08T06:14:54.027Z,17.10
2017-06-08T06:17:21.798Z,17.10
2017-06-08T06:19:49.476Z,17.20
2017-06-08T06:22:17.457Z,17.20
2017-06-08T06:24:45.106Z,17.20
2017-06-08T06:27:12.853Z,17.30
2017-06-08T06:29:40.654Z,17.30
2017-06-08T06:32:09.201Z,17.40
2017-06-08T06:34:37.275Z,17.30
2017-06-08T06:37:05.137Z,17.40
2017-06-08T06:39:32.800Z,17.40
2017-06-08T06:42:00.562Z,17.50
2017-06-08T06:44:28.346Z,17.50
2017-06-08T06:46:56.501Z,17.60
2017-06-08T06:49:24.266Z,17.60
2017-06-08T06:51:51.946Z,17.60
2017-06-08T06:54:19.796Z,17.60
2017-06-08T06:56:47.559Z,17.60
2017-06-08T06:59:15.629Z,17.70
2017-06-08T07:01:43.319Z,17.70
2017-06-08T07:04:10.977Z,17.70
2017-06-08T07:06:38.721Z,17.70
2017-06-08T07:09:06.483Z,17.70
2017-06-08T07:11:34.472Z,17.80
2017-06-08T07:14:02.109Z,17.80
2017-06-08T07:16:29.810Z,17.90
2017-06-08T07:18:58.234Z,17.90
2017-06-08T07:21:25.960Z,17.90
2017-06-08T07:23:53.909Z,18.00
2017-06-08T07:26:21.547Z,18.00
2017-06-08T07:28:49.240Z,18.00
2017-06-08T07:31:17.796Z,18.10
2017-06-08T07:33:45.469Z,18.00
2017-06-08T07:36:13.548Z,18.10
2017-06-08T07:38:41.211Z,18.10
2017-06-08T07:41:08.839Z,18.10
2017-06-08T07:43:36.540Z,18.20
2017-06-08T07:46:04.170Z,18.20
2017-06-08T07:48:31.887Z,18.20
2017-06-08T07:51:00.328Z,18.30
2017-06-08T07:53:27.955Z,18.20
2017-06-08T07:55:55.632Z,18.30
2017-06-08T07:58:23.264Z,18.40
2017-06-08T08:01:02.800Z,18.40
2017-06-08T08:03:30.444Z,18.40
2017-06-08T08:05:58.863Z,18.50
2017-06-08T08:08:26.822Z,18.40
2017-06-08T08:10:54.450Z,18.50
2017-06-08T08:13:22.845Z,18.50
2017-06-08T08:15:50.854Z,18.50
2017-06-08T08:18:18.521Z,18.60
2017-06-08T08:20:46.150Z,18.60
2017-06-08T08:23:14.093Z,18.70
2017-06-08T08:25:42.508Z,18.80
2017-06-08T08:28:10.152Z,18.70
2017-06-08T08:30:37.836Z,18.80
2017-06-08T08:33:05.545Z,18.90
2017-06-08T08:35:33.574Z,19.00
2017-06-08T08:38:01.241Z,19.00
2017-06-08T08:40:28.869Z,19.00
2017-06-08T08:42:56.550Z,19.10
2017-06-08T08:45:24.204Z,19.20
2017-06-08T08:47:52.214Z,19.30
2017-06-08T08:50:19.869Z,19.40
2017-06-08T08:52:47.657Z,19.50
2017-06-08T08:55:15.367Z,19.60
2017-06-08T08:57:43.008Z,19.70
2017-06-08T09:00:10.944Z,19.70
2017-06-08T09:02:38.588Z,19.80
2017-06-08T09:05:06.249Z,19.90
2017-06-08T09:07:33.915Z,19.90
2017-06-08T09:10:01.568Z,20.00
2017-06-08T09:12:29.535Z,20.00
2017-06-08T09:14:57.183Z,20.10
2017-06-08T09:17:24.820Z,20.20
2017-06-08T09:19:52.835Z,20.20
2017-06-08T09:22:20.494Z,20.20
2017-06-08T09:24:48.216Z,20.30
2017-06-08T09:27:16.248Z,20.30
2017-06-08T09:29:43.879Z,20.40
2017-06-08T09:32:11.507Z,20.40
2017-06-08T09:34:39.503Z,20.40
2017-06-08T09:37:07.135Z,20.40
2017-06-08T09:39:34.841Z,20.50
2017-06-08T09:42:02.790Z,20.50
2017-06-08T09:44:30.434Z,20.50
2017-06-08T09:46:58.071Z,20.50
2017-06-08T09:49:26.802Z,20.40
2017-06-08T09:51:54.438Z,20.40
2017-06-08T09:54:22.074Z,20.40
2017-06-08T09:56:50.009Z,20.40
2017-06-08T09:59:17.773Z,20.40
2017-06-08T10:01:45.539Z,20.40
2017-06-08T10:04:13.610Z,20.40
2017-06-08T10:06:41.375Z,20.40
2017-06-08T10:09:09.002Z,20.40
2017-06-08T10:11:37.026Z,20.40
2017-06-08T10:14:04.664Z,20.40
2017-06-08T10:16:32.345Z,20.40
2017-06-08T10:19:00.293Z,20.40
2017-06-08T10:21:28.061Z,20.40
2017-06-08T10:23:55.700Z,20.40
2017-06-08T10:26:23.674Z,20.30
2017-06-08T10:28:51.380Z,20.30
2017-06-08T10:31:19.005Z,20.30
2017-06-08T10:33:47.188Z,20.20
2017-06-08T10:36:14.952Z,20.30
2017-06-08T10:38:42.615Z,20.30
2017-06-08T10:41:10.581Z,20.30
2017-06-08T10:43:38.249Z,20.30
2017-06-08T10:46:05.929Z,20.30
2017-06-08T10:48:33.971Z,20.30
2017-06-08T10:51:01.746Z,20.30
2017-06-08T10:53:30.549Z,20.30
2017-06-08T10:55:58.726Z,20.30
2017-06-08T10:58:26.586Z,20.30
2017-06-08T11:00:54.450Z,20.30
2017-06-08T11:03:22.735Z,20.30
2017-06-08T11:05:50.480Z,20.20
2017-06-08T11:08:18.348Z,20.20
2017-06-08T11:10:46.337Z,20.10
2017-06-08T11:13:14.816Z,20.10
2017-06-08T11:15:42.458Z,20.00
2017-06-08T11:18:10.425Z,20.10
2017-06-08T11:20:38.191Z,20.00
2017-06-08T11:23:06.646Z,20.00
2017-06-08T11:25:34.970Z,20.00
2017-06-08T11:28:02.932Z,20.00
2017-06-08T11:30:31.316Z,20.00
2017-06-08T11:32:59.586Z,20.00
2017-06-08T11:35:27.453Z,20.00
2017-06-08T11:37:55.325Z,20.00
2017-06-08T11:40:23.496Z,20.00
2017-06-08T11:42:51.543Z,20.00
2017-06-08T11:45:19.440Z,20.00
2017-06-08T11:47:47.610Z,20.00
2017-06-08T11:50:15.476Z,20.10
2017-06-08T11:52:43.338Z,20.10
2017-06-08T11:55:11.411Z,20.10
2017-06-08T11:57:39.281Z,20.10
2017-06-08T12:00:07.549Z,20.00
2017-06-08T12:02:35.709Z,20.00
2017-06-08T12:05:03.476Z,20.00
2017-06-08T12:07:31.131Z,20.10
2017-06-08T12:09:59.125Z,20.10
2017-06-08T12:12:26.757Z,20.10
2017-06-08T12:14:54.536Z,20.10
2017-06-08T12:17:22.495Z,20.10
2017-06-08T12:19:51.096Z,20.10
2017-06-08T12:22:19.583Z,20.10
2017-06-08T12:24:47.524Z,20.10
2017-06-08T12:27:15.193Z,20.10
2017-06-08T12:29:42.960Z,20.10
2017-06-08T12:32:10.882Z,20.20
2017-06-08T12:34:38.514Z,20.20
2017-06-08T12:37:06.466Z,20.20
2017-06-08T12:39:34.528Z,20.20
2017-06-08T12:42:02.294Z,20.20
2017-06-08T12:44:29.942Z,20.20
2017-06-08T12:46:58.229Z,20.30
2017-06-08T12:49:25.931Z,20.30
2017-06-08T12:51:54.479Z,20.40
2017-06-08T12:54:22.467Z,20.30
2017-06-08T12:56:50.208Z,20.40
2017-06-08T12:59:17.845Z,20.40
2017-06-08T13:01:45.817Z,20.40
2017-06-08T13:04:13.603Z,20.40
2017-06-08T13:06:41.230Z,20.40
2017-06-08T13:09:09.218Z,20.40
2017-06-08T13:11:36.856Z,20.40
2017-06-08T13:14:04.617Z,20.40
2017-06-08T13:16:32.626Z,20.40
2017-06-08T13:19:00.496Z,20.40
2017-06-08T13:21:28.143Z,20.40
2017-06-08T13:23:56.113Z,20.40
2017-06-08T13:26:23.802Z,20.40
2017-06-08T13:28:51.466Z,20.40
2017-06-08T13:31:19.521Z,20.40
2017-06-08T13:33:47.230Z,20.50
2017-06-08T13:36:15.665Z,20.50
2017-06-08T13:38:43.740Z,20.40
2017-06-08T13:41:11.370Z,20.50
2017-06-08T13:43:39.015Z,20.60
2017-06-08T13:46:07.130Z,20.70
2017-06-08T13:48:35.022Z,20.80
2017-06-08T13:51:02.668Z,20.90
2017-06-08T13:53:30.614Z,20.90
2017-06-08T13:55:58.321Z,21.00
2017-06-08T13:58:26.053Z,21.00
2017-06-08T14:00:54.124Z,21.00
2017-06-08T14:03:21.888Z,21.10
2017-06-08T14:05:49.565Z,21.10
2017-06-08T14:08:17.622Z,21.20
2017-06-08T14:10:45.302Z,21.30
2017-06-08T14:13:13.050Z,21.40
2017-06-08T14:15:41.019Z,21.50
2017-06-08T14:18:08.884Z,21.60
2017-06-08T14:20:36.528Z,21.70
2017-06-08T14:23:04.950Z,21.80
2017-06-08T14:25:32.607Z,21.80
2017-06-08T14:28:00.272Z,21.90
2017-06-08T14:30:28.306Z,21.90
2017-06-08T14:32:56.107Z,22.00
2017-06-08T14:35:23.775Z,22.10
2017-06-08T14:37:51.919Z,22.10
2017-06-08T14:40:19.805Z,22.20
2017-06-08T14:42:47.568Z,22.20
2017-06-08T14:45:15.825Z,22.30
2017-06-08T14:47:43.715Z,22.30
2017-06-08T14:50:11.468Z,22.40
2017-06-08T14:52:39.630Z,22.40
2017-06-08T14:55:07.515Z,22.50
2017-06-08T14:57:35.512Z,22.50
2017-06-08T15:00:04.467Z,22.60
2017-06-08T15:02:32.338Z,22.50
2017-06-08T15:05:00.213Z,22.70
2017-06-08T15:07:28.365Z,22.70
2017-06-08T15:09:56.141Z,22.70
2017-06-08T15:12:24.012Z,22.80
2017-06-08T15:14:52.219Z,22.80
2017-06-08T15:17:20.878Z,22.80
2017-06-08T15:19:49.560Z,22.80
2017-06-08T15:22:18.182Z,22.70
2017-06-08T15:24:45.891Z,22.80
2017-06-08T15:27:13.756Z,22.80
2017-06-08T15:29:41.900Z,22.90
2017-06-08T15:32:09.636Z,22.80
2017-06-08T15:34:38.292Z,22.90
2017-06-08T15:37:06.460Z,22.80
2017-06-08T15:39:34.334Z,22.90
2017-06-08T15:42:02.196Z,22.90
2017-06-08T15:44:30.256Z,22.90
2017-06-08T15:46:57.989Z,22.90
2017-06-08T15:49:25.801Z,22.90
2017-06-08T15:51:54.173Z,22.90
2017-06-08T15:54:22.133Z,22.80
2017-06-08T15:56:50.101Z,22.80
2017-06-08T15:59:18.172Z,22.80
2017-06-08T16:01:45.879Z,22.80
2017-06-08T16:04:13.822Z,22.70
2017-06-08T16:06:42.071Z,22.70
2017-06-08T16:09:09.807Z,22.70
2017-06-08T16:11:37.502Z,22.70
2017-06-08T16:14:05.518Z,22.70
2017-06-08T16:16:34.173Z,22.70
2017-06-08T16:19:02.035Z,22.60
2017-06-08T16:21:30.094Z,22.70
2017-06-08T16:23:57.878Z,22.70
2017-06-08T16:26:25.745Z,22.70
2017-06-08T16:28:53.810Z,22.70
2017-06-08T16:31:21.493Z,22.70
2017-06-08T16:33:49.265Z,22.70
2017-06-08T16:36:18.115Z,22.70
2017-06-08T16:38:45.886Z,22.60
2017-06-08T16:41:13.641Z,22.70
2017-06-08T16:43:41.654Z,22.70
2017-06-08T16:46:10.145Z,22.70
2017-06-08T16:48:38.584Z,22.70
2017-06-08T16:51:06.600Z,22.60
2017-06-08T16:53:34.307Z,22.70
2017-06-08T16:56:02.074Z,22.70
2017-06-08T16:58:30.275Z,22.70
2017-06-08T17:00:58.119Z,22.70
2017-06-08T17:03:25.901Z,22.70
2017-06-08T17:05:54.048Z,22.70
2017-06-08T17:08:21.812Z,22.70
2017-06-08T17:10:49.692Z,22.70
2017-06-08T17:13:17.756Z,22.70
2017-06-08T17:15:45.436Z,22.70
2017-06-08T17:18:13.153Z,22.70
2017-06-08T17:20:41.219Z,22.70
2017-06-08T17:23:08.901Z,22.60
2017-06-08T17:25:36.644Z,22.60
2017-06-08T17:28:04.874Z,22.60
2017-06-08T17:30:32.716Z,22.60
2017-06-08T17:33:00.596Z,22.60
2017-06-08T17:35:28.877Z,22.60
2017-06-08T17:37:56.744Z,22.60
2017-06-08T17:40:24.606Z,22.50
2017-06-08T17:42:52.888Z,22.50
2017-06-08T17:45:20.744Z,22.50
2017-06-08T17:47:48.622Z,22.50
2017-06-08T17:50:16.996Z,22.50
2017-06-08T17:52:44.865Z,22.50
2017-06-08T17:55:12.729Z,22.50
2017-06-08T17:57:40.877Z,22.40
2017-06-08T18:00:08.590Z,22.40
2017-06-08T18:02:37.541Z,22.40
2017-06-08T18:05:05.501Z,22.30
2017-06-08T18:07:33.144Z,22.30
2017-06-08T18:10:00.773Z,22.30
2017-06-08T18:12:29.544Z,22.30
2017-06-08T18:14:57.201Z,22.30
2017-06-08T18:17:24.855Z,22.30
2017-06-08T18:19:52.916Z,22.30
2017-06-08T18:22:20.554Z,22.20
2017-06-08T18:24:48.255Z,22.20
2017-06-08T18:27:16.190Z,22.20
2017-06-08T18:29:43.810Z,22.20
2017-06-08T18:32:12.267Z,22.10
2017-06-08T18:37:19.062Z,22.10
2017-06-08T18:39:46.805Z,22.10
2017-06-08T18:42:14.452Z,22.10
2017-06-08T18:44:42.537Z,22.10
2017-06-08T18:47:10.167Z,22.00
2017-06-08T18:49:37.878Z,22.00
2017-06-08T18:52:05.818Z,22.00
2017-06-08T18:54:33.438Z,21.90
2017-06-08T18:57:01.975Z,21.90
2017-06-08T18:59:29.936Z,21.80
2017-06-08T19:01:57.840Z,21.80
2017-06-08T19:04:25.689Z,21.80
2017-06-08T19:06:53.865Z,21.80
2017-06-08T19:09:21.729Z,21.80
2017-06-08T19:11:49.602Z,21.70
2017-06-08T19:14:17.999Z,21.70
2017-06-08T19:16:46.673Z,21.60
2017-06-08T19:19:14.526Z,21.60
2017-06-08T19:21:42.705Z,21.60
2017-06-08T19:24:10.485Z,21.60
2017-06-08T19:26:38.440Z,21.50
2017-06-08T19:29:06.821Z,21.50
2017-06-08T19:31:34.690Z,21.50
2017-06-08T19:34:02.552Z,21.50
2017-06-08T19:36:30.722Z,21.50
2017-06-08T19:38:58.798Z,21.40
2017-06-08T19:41:26.663Z,21.40
2017-06-08T19:43:54.932Z,21.40
2017-06-08T19:46:22.807Z,21.40
2017-06-08T19:48:50.670Z,21.30
2017-06-08T19:51:18.946Z,21.30
2017-06-08T19:53:46.808Z,21.30
2017-06-08T19:56:14.680Z,21.20
2017-06-08T19:58:43.159Z,21.20
2017-06-08T20:01:11.032Z,21.20
2017-06-08T20:03:38.895Z,21.20
2017-06-08T20:06:07.167Z,21.20
2017-06-08T20:08:35.032Z,21.10
2017-06-08T20:11:02.905Z,21.10
2017-06-08T20:13:31.181Z,21.10
2017-06-08T20:15:59.867Z,21.00
2017-06-08T20:18:27.733Z,21.00
2017-06-08T20:20:56.000Z,21.00
2017-06-08T20:23:23.857Z,20.90
2017-06-08T20:25:51.745Z,20.90
2017-06-08T20:28:20.012Z,20.90
2017-06-08T20:30:47.879Z,20.90
2017-06-08T20:33:15.748Z,20.80
2017-06-08T20:35:43.928Z,20.80
2017-06-08T20:38:11.703Z,20.80
2017-06-08T20:40:40.378Z,20.80
2017-06-08T20:43:08.458Z,20.80
2017-06-08T20:45:36.311Z,20.70
2017-06-08T20:48:04.172Z,20.70
2017-06-08T20:50:32.454Z,20.70
2017-06-08T20:53:00.422Z,20.60
2017-06-08T20:55:28.293Z,20.60
2017-06-08T20:57:56.475Z,20.60
2017-06-08T21:00:24.330Z,20.60
2017-06-08T21:02:52.198Z,20.50
2017-06-08T21:05:20.574Z,20.50
2017-06-08T21:07:48.438Z,20.50
2017-06-08T21:10:16.308Z,20.40
2017-06-08T21:12:44.488Z,20.40
2017-06-08T21:15:12.342Z,20.40
2017-06-08T21:17:40.128Z,20.40
2017-06-08T21:20:08.394Z,20.30
2017-06-08T21:22:36.260Z,20.30
2017-06-08T21:25:04.120Z,20.30
2017-06-08T21:27:33.110Z,20.30
2017-06-08T21:30:00.983Z,20.20
2017-06-08T21:32:28.842Z,20.20
2017-06-08T21:34:59.409Z,20.20
2017-06-08T21:37:27.443Z,20.20
2017-06-08T21:39:55.291Z,20.10
2017-06-08T21:42:23.484Z,20.10
2017-06-08T21:44:51.354Z,20.10
2017-06-08T21:47:19.228Z,20.10
2017-06-08T21:49:47.499Z,20.10
2017-06-08T21:52:15.361Z,20.00
2017-06-08T21:54:43.209Z,20.00
2017-06-08T21:57:11.309Z,20.00
2017-06-08T21:59:39.169Z,19.90
2017-06-08T22:02:07.034Z,19.90
2017-06-08T22:04:35.307Z,19.90
2017-06-08T22:07:03.486Z,19.90
2017-06-08T22:09:31.356Z,19.90
2017-06-08T22:11:59.630Z,19.80
2017-06-08T22:14:27.494Z,19.80
2017-06-08T22:16:55.359Z,19.80
2017-06-08T22:19:23.642Z,19.70
2017-06-08T22:21:51.506Z,19.70
2017-06-08T22:24:19.130Z,19.70
2017-06-08T22:26:47.101Z,19.70
2017-06-08T22:29:14.726Z,19.60
2017-06-08T22:31:43.155Z,19.60
2017-06-08T22:34:11.096Z,19.50
2017-06-08T22:36:38.802Z,19.50
2017-06-08T22:39:06.552Z,19.50
2017-06-08T22:41:34.534Z,19.50
2017-06-08T22:44:02.187Z,19.50
2017-06-08T22:46:29.870Z,19.50
2017-06-08T22:48:57.917Z,19.40
2017-06-08T22:51:25.680Z,19.40
2017-06-08T22:53:53.358Z,19.40
2017-06-08T22:56:21.515Z,19.40
2017-06-08T22:58:49.134Z,19.40
2017-06-08T23:01:16.861Z,19.30
2017-06-08T23:03:44.791Z,19.30
2017-06-08T23:06:12.496Z,19.30
2017-06-08T23:08:40.237Z,19.30
2017-06-08T23:11:08.158Z,19.30
2017-06-08T23:13:35.967Z,19.30
2017-06-08T23:16:03.631Z,19.20
2017-06-08T23:18:31.716Z,19.20
2017-06-08T23:20:59.353Z,19.20
2017-06-08T23:23:27.039Z,19.20
2017-06-08T23:25:55.502Z,19.20
2017-06-08T23:28:23.372Z,19.10
2017-06-08T23:30:51.050Z,19.10
2017-06-08T23:33:19.039Z,19.10
2017-06-08T23:35:47.498Z,19.00
2017-06-08T23:38:15.554Z,19.00
2017-06-08T23:40:43.530Z,19.00
2017-06-08T23:43:11.195Z,19.00
2017-06-08T23:45:38.863Z,19.00
2017-06-08T23:48:06.817Z,19.00
2017-06-08T23:50:34.579Z,19.00
2017-06-08T23:53:02.207Z,18.90
2017-06-08T23:55:30.146Z,18.90
2017-06-08T23:57:58.587Z,18.80
